Bao An Cheng 69 — BVBD5 — position and weather

sailwx.info

Track history (hours):
 
Tides and Currents Weather Stations Pressure Air Temp Water Temp Dewpoint Dewpoint Depression Visibility Wind Speed Wind Dir Waves Ship Positions

Bao An Cheng 69

Last reported at 2016-Dec-08 23:34 UTC. Time now 2016-Dec-09 00:06 UTC.
Position N 23°44' E 117°44'.

Length 121 m; draft 5.8 m.

Type: Cargo ship. MMSI: 412703090.

Date/timePositionNaut miles runAvg speedWind from/ knotsBaromVisibWave heightAir tempDewpointWater temp
2016-Dec-08 23:34N 23°44' E 117°44'9 9.2
2016-Dec-08 22:34N 23°39' E 117°36'4310.1
2016-Dec-08 18:19N 23°18' E 116°55'7 9.5
2016-Dec-08 17:33N 23°17' E 116°47'5 4.9
2016-Dec-08 16:33N 23°21' E 116°44'0 0.0
2016-Dec-08 15:32N 23°21' E 116°44'0 0.0
2016-Dec-08 14:32N 23°21' E 116°44'0 0.0
2016-Dec-08 13:32N 23°21' E 116°44'0 0.0
2016-Dec-08 12:26N 23°21' E 116°44'0 0.0
2016-Dec-08 10:30N 23°21' E 116°44'0 0.0
2016-Dec-08 09:30N 23°21' E 116°44'0 0.0
2016-Dec-08 08:30N 23°21' E 116°44'0 0.0
2016-Dec-08 07:30N 23°21' E 116°44'0 0.0
2016-Dec-08 06:24N 23°21' E 116°44'0 0.0
2016-Dec-08 05:30N 23°21' E 116°44'0 0.0
2016-Dec-08 04:30N 23°21' E 116°44'0 0.0
2016-Dec-08 03:30N 23°21' E 116°44'0 0.0
2016-Dec-08 02:28N 23°21' E 116°44'0 0.0
2016-Dec-08 01:31N 23°21' E 116°44'0 0.0
2016-Dec-08 00:31N 23°21' E 116°44'0 0.0
2016-Dec-07 23:28N 23°21' E 116°44'0 0.0
2016-Dec-07 22:31N 23°21' E 116°44'0 0.0
2016-Dec-07 21:31N 23°21' E 116°44'0 0.0
2016-Dec-07 20:10N 23°21' E 116°44'0 0.0
2016-Dec-07 19:28N 23°21' E 116°44'0 0.0
2016-Dec-07 18:22N 23°21' E 116°44'0 0.0
2016-Dec-07 17:28N 23°21' E 116°44'0 0.0
2016-Dec-07 16:33N 23°21' E 116°44'3 3.4
2016-Dec-07 15:34N 23°19' E 116°46'50 9.8
2016-Dec-07 10:26N 23°39' E 117°36'910.6
2016-Dec-07 09:33N 23°44' E 117°44'1110.3
2016-Dec-07 08:30N 23°51' E 117°54'9 9.3
2016-Dec-07 07:33N 23°57' E 118°01'10 9.2
2016-Dec-07 06:27N 24°03' E 118°10'8 8.9
2016-Dec-07 05:33N 24°08' E 118°17'9 8.9
2016-Dec-07 04:32N 24°15' E 118°24'13 9.2
2016-Dec-07 03:06N 24°24' E 118°34'8 9.3
2016-Dec-07 02:16N 24°30' E 118°39'7 9.9
2016-Dec-07 01:34N 24°36' E 118°44'1010.2
2016-Dec-07 00:34N 24°45' E 118°48'6 5.9
2016-Dec-06 23:33N 24°49' E 118°43'0 0.0
2016-Dec-06 22:29N 24°49' E 118°43'0 0.0
2016-Dec-06 21:29N 24°49' E 118°43'0 0.0
2016-Dec-06 20:29N 24°49' E 118°43'0 0.0
2016-Dec-06 18:11N 24°49' E 118°43'0 0.0
2016-Dec-06 17:29N 24°49' E 118°43'0 0.0
2016-Dec-06 16:29N 24°49' E 118°43'0 0.0
2016-Dec-06 15:33N 24°49' E 118°43'0 0.0
2016-Dec-06 14:33N 24°49' E 118°43'0 0.0
2016-Dec-06 13:33N 24°49' E 118°43'0 0.0
2016-Dec-06 12:33N 24°49' E 118°43'0 0.0
2016-Dec-06 11:27N 24°49' E 118°43'0 0.0
2016-Dec-06 10:21N 24°49' E 118°43'0 0.0
2016-Dec-06 09:33N 24°49' E 118°43'0 0.1
2016-Dec-06 08:34N 24°49' E 118°43'5 4.1
2016-Dec-06 07:26N 24°48' E 118°48'0 0.0
2016-Dec-06 03:14N 24°48' E 118°48'0 0.0
2016-Dec-06 02:32N 24°48' E 118°48'0 0.0
2016-Dec-06 01:26N 24°48' E 118°48'0 0.0
2016-Dec-06 00:26N 24°48' E 118°48'0 0.0
2016-Dec-05 23:32N 24°48' E 118°48'1 0.5
2016-Dec-05 21:33N 24°47' E 118°49'8 7.6
2016-Dec-05 20:33N 24°40' E 118°46'9 8.0
2016-Dec-05 19:27N 24°32' E 118°41'8 8.3
2016-Dec-05 18:32N 24°27' E 118°35'9 8.5
2016-Dec-05 17:28N 24°21' E 118°28'8 8.7
2016-Dec-05 16:33N 24°17' E 118°20'9 8.9
2016-Dec-05 15:33N 24°11' E 118°13'11 9.5
2016-Dec-05 14:26N 24°03' E 118°05'8 9.0
2016-Dec-05 13:32N 23°57' E 117°59'17 8.4
2016-Dec-05 11:34N 23°46' E 117°46'8 7.9
2016-Dec-05 10:32N 23°41' E 117°39'45 8.8
2016-Dec-05 05:22N 23°18' E 116°56'8 9.2
2016-Dec-05 04:33N 23°17' E 116°48'5 5.4
2016-Dec-05 03:33N 23°21' E 116°44'0 0.0
2016-Dec-05 02:31N 23°21' E 116°44'0 0.0
2016-Dec-05 01:31N 23°21' E 116°44'0 0.0
2016-Dec-05 00:31N 23°21' E 116°44'0 0.0
2016-Dec-04 23:31N 23°21' E 116°44'0 0.0
2016-Dec-04 22:31N 23°21' E 116°44'0 0.0
2016-Dec-04 21:25N 23°21' E 116°44'0 0.0
2016-Dec-04 20:31N 23°21' E 116°44'0 0.0
2016-Dec-04 19:19N 23°21' E 116°44'0 0.0
2016-Dec-04 18:31N 23°21' E 116°44'0 0.0
2016-Dec-04 17:31N 23°21' E 116°44'0 0.0
2016-Dec-04 16:31N 23°21' E 116°44'0 0.0
2016-Dec-04 15:31N 23°21' E 116°44'0 0.0
2016-Dec-04 14:31N 23°21' E 116°44'0 0.0
2016-Dec-04 13:31N 23°21' E 116°44'0 0.0
2016-Dec-04 12:25N 23°21' E 116°44'0 0.0
2016-Dec-04 11:31N 23°21' E 116°44'0 0.0
2016-Dec-04 10:31N 23°21' E 116°44'0 0.0
2016-Dec-04 09:31N 23°21' E 116°44'0 0.0
2016-Dec-04 08:31N 23°21' E 116°44'0 0.0
2016-Dec-04 07:28N 23°21' E 116°44'0 0.0
2016-Dec-04 06:28N 23°21' E 116°44'0 0.0
2016-Dec-04 05:22N 23°21' E 116°44'0 0.0
2016-Dec-04 04:28N 23°21' E 116°44'0 0.0
2016-Dec-04 03:28N 23°21' E 116°44'0 0.0
2016-Dec-04 02:28N 23°21' E 116°44'8 2.3
2016-Dec-03 23:06N 23°17' E 116°51'0 0.0
2016-Dec-03 22:31N 23°17' E 116°51'0 0.0
2016-Dec-03 21:24N 23°17' E 116°51'0 0.1
2016-Dec-03 20:30N 23°17' E 116°51'0 0.1
2016-Dec-03 19:30N 23°17' E 116°51'0 0.1
2016-Dec-03 18:24N 23°17' E 116°51'0 0.0
2016-Dec-03 17:30N 23°17' E 116°51'0 0.0
2016-Dec-03 16:30N 23°17' E 116°51'0 0.0
2016-Dec-03 15:30N 23°17' E 116°51'0 0.0
2016-Dec-03 14:30N 23°17' E 116°51'0 0.0
2016-Dec-03 13:24N 23°17' E 116°51'0 0.0
2016-Dec-03 12:24N 23°17' E 116°51'0 0.0
2016-Dec-03 11:12N 23°17' E 116°51'0 0.0
2016-Dec-03 10:24N 23°17' E 116°51'0 0.0
2016-Dec-03 09:24N 23°17' E 116°51'0 0.0
2016-Dec-03 08:30N 23°17' E 116°51'0 0.0
2016-Dec-03 07:24N 23°17' E 116°51'0 0.0
2016-Dec-03 06:30N 23°17' E 116°51'0 0.1
2016-Dec-03 05:30N 23°17' E 116°51'0 0.1
2016-Dec-03 04:30N 23°17' E 116°51'0 0.0
2016-Dec-03 03:18N 23°17' E 116°51'0 0.0
2016-Dec-03 02:30N 23°17' E 116°51'0 0.1
2016-Dec-03 01:24N 23°17' E 116°51'0 0.1
2016-Dec-03 00:24N 23°17' E 116°51'0 0.1
2016-Dec-02 23:24N 23°17' E 116°51'0 0.0
2016-Dec-02 22:24N 23°17' E 116°51'0 0.0
2016-Dec-02 21:30N 23°17' E 116°51'0 0.0
2016-Dec-02 20:24N 23°17' E 116°51'0 0.1
2016-Dec-02 19:18N 23°17' E 116°51'0 0.0
2016-Dec-02 18:30N 23°17' E 116°51'0 0.0
2016-Dec-02 17:30N 23°17' E 116°51'3 3.2
2016-Dec-02 16:32N 23°18' E 116°54'46 9.3
2016-Dec-02 11:33N 23°40' E 117°38'2719.8
2016-Dec-02 10:13N 23°56' E 118°01'3 3.1
2016-Dec-02 09:16N 23°54' E 117°58'810.4
2016-Dec-02 08:32N 23°59' E 118°05'1110.9
2016-Dec-02 07:33N 24°06' E 118°14'1210.7
2016-Dec-02 06:27N 24°14' E 118°23'1413.1
2016-Dec-02 05:25N 24°24' E 118°33'27 8.3
2016-Dec-02 02:08N 24°48' E 118°46'3 4.6
2016-Dec-02 01:33N 24°49' E 118°43'0 0.1
2016-Dec-02 00:23N 24°49' E 118°43'0 0.0
2016-Dec-01 23:29N 24°49' E 118°43'0 0.0
2016-Dec-01 22:29N 24°49' E 118°43'0 0.0
2016-Dec-01 21:17N 24°49' E 118°43'0 0.0
2016-Dec-01 20:29N 24°49' E 118°43'0 0.0
2016-Dec-01 19:29N 24°49' E 118°43'0 0.0
2016-Dec-01 18:23N 24°49' E 118°43'0 0.0
2016-Dec-01 17:30N 24°49' E 118°43'0 0.0
2016-Dec-01 15:23N 24°49' E 118°43'0 0.0
2016-Dec-01 14:23N 24°49' E 118°43'0 0.0
2016-Dec-01 13:20N 24°49' E 118°43'1 1.0
2016-Dec-01 12:33N 24°49' E 118°44'7 6.6
2016-Dec-01 11:33N 24°43' E 118°47'2014.2
2016-Dec-01 10:10N 24°26' E 118°35'4 5.9
2016-Dec-01 09:32N 24°24' E 118°32'5 4.6
2016-Dec-01 08:33N 24°27' E 118°36'6 5.5
2016-Dec-01 07:31N 24°24' E 118°31'6 5.8
2016-Dec-01 06:33N 24°20' E 118°26'6 6.2
2016-Dec-01 05:33N 24°17' E 118°20'6 5.9
2016-Dec-01 04:33N 24°14' E 118°15'7 6.6
2016-Dec-01 03:32N 24°08' E 118°11'8 7.3
2016-Dec-01 02:23N 24°02' E 118°04'9 9.1
2016-Dec-01 01:24N 23°56' E 117°57'16 8.8
2016-Nov-30 23:33N 23°45' E 117°44'9 8.9
2016-Nov-30 22:32N 23°39' E 117°37'38 7.3
2016-Nov-30 17:21N 23°20' E 117°01'8 8.7
2016-Nov-30 16:29N 23°17' E 116°53'8 8.0
2016-Nov-30 15:28N 23°20' E 116°45'1 1.6
2016-Nov-30 14:33N 23°21' E 116°44'0 0.1
2016-Nov-30 13:33N 23°21' E 116°44'0 0.1
2016-Nov-30 12:33N 23°21' E 116°44'0 0.0
2016-Nov-30 09:03N 23°21' E 116°44'0 0.0
2016-Nov-30 08:29N 23°21' E 116°44'0 0.0
2016-Nov-30 07:33N 23°21' E 116°44'0 0.0
2016-Nov-30 05:23N 23°21' E 116°44'0 0.0
2016-Nov-30 03:27N 23°21' E 116°44'0 0.0
2016-Nov-30 02:21N 23°21' E 116°44'0 0.0
2016-Nov-30 01:15N 23°21' E 116°44'0 0.0
2016-Nov-30 00:33N 23°21' E 116°44'2 1.9
2016-Nov-29 23:33N 23°20' E 116°45'7 6.7
2016-Nov-29 22:33N 23°16' E 116°51'6710.7
2016-Nov-29 16:17N 23°51' E 117°54'810.5
2016-Nov-29 15:33N 23°56' E 118°01'9 9.4
2016-Nov-29 14:33N 24°02' E 118°09'11 9.2
2016-Nov-29 13:22N 24°09' E 118°18'31 6.2
2016-Nov-29 08:20N 24°32' E 118°40'7 8.6
2016-Nov-29 07:34N 24°38' E 118°45'1010.1
2016-Nov-29 06:34N 24°48' E 118°48'4 4.3
2016-Nov-29 05:33N 24°49' E 118°43'0 0.0
2016-Nov-29 04:25N 24°49' E 118°43'0 0.0
2016-Nov-29 03:19N 24°49' E 118°43'0 0.0
2016-Nov-29 02:17N 24°49' E 118°43'0 0.0
2016-Nov-29 01:28N 24°49' E 118°43'0 0.0
2016-Nov-29 00:29N 24°49' E 118°43'  
Track history (hours):
 
Tides and Currents Weather Stations Pressure Air Temp Water Temp Dewpoint Dewpoint Depression Visibility Wind Speed Wind Dir Waves Ship Positions

Bao An Cheng 69

Last reported at 2016-Dec-08 23:34 UTC. Time now 2016-Dec-09 00:06 UTC.
Position N 23°44' E 117°44'.

Length 121 m; draft 5.8 m.

Type: Cargo ship. MMSI: 412703090.

Date/timePositionNaut miles runAvg speedWind from/ knotsBaromVisibWave heightAir tempDewpointWater temp
2016-Dec-08 23:34N 23°44' E 117°44'9 9.2
2016-Dec-08 22:34N 23°39' E 117°36'4310.1
2016-Dec-08 18:19N 23°18' E 116°55'7 9.5
2016-Dec-08 17:33N 23°17' E 116°47'5 4.9
2016-Dec-08 16:33N 23°21' E 116°44'0 0.0
2016-Dec-08 15:32N 23°21' E 116°44'0 0.0
2016-Dec-08 14:32N 23°21' E 116°44'0 0.0
2016-Dec-08 13:32N 23°21' E 116°44'0 0.0
2016-Dec-08 12:26N 23°21' E 116°44'0 0.0
2016-Dec-08 10:30N 23°21' E 116°44'0 0.0
2016-Dec-08 09:30N 23°21' E 116°44'0 0.0
2016-Dec-08 08:30N 23°21' E 116°44'0 0.0
2016-Dec-08 07:30N 23°21' E 116°44'0 0.0
2016-Dec-08 06:24N 23°21' E 116°44'0 0.0
2016-Dec-08 05:30N 23°21' E 116°44'0 0.0
2016-Dec-08 04:30N 23°21' E 116°44'0 0.0
2016-Dec-08 03:30N 23°21' E 116°44'0 0.0
2016-Dec-08 02:28N 23°21' E 116°44'0 0.0
2016-Dec-08 01:31N 23°21' E 116°44'0 0.0
2016-Dec-08 00:31N 23°21' E 116°44'0 0.0
2016-Dec-07 23:28N 23°21' E 116°44'0 0.0
2016-Dec-07 22:31N 23°21' E 116°44'0 0.0
2016-Dec-07 21:31N 23°21' E 116°44'0 0.0
2016-Dec-07 20:10N 23°21' E 116°44'0 0.0
2016-Dec-07 19:28N 23°21' E 116°44'0 0.0
2016-Dec-07 18:22N 23°21' E 116°44'0 0.0
2016-Dec-07 17:28N 23°21' E 116°44'0 0.0
2016-Dec-07 16:33N 23°21' E 116°44'3 3.4
2016-Dec-07 15:34N 23°19' E 116°46'50 9.8
2016-Dec-07 10:26N 23°39' E 117°36'910.6
2016-Dec-07 09:33N 23°44' E 117°44'1110.3
2016-Dec-07 08:30N 23°51' E 117°54'9 9.3
2016-Dec-07 07:33N 23°57' E 118°01'10 9.2
2016-Dec-07 06:27N 24°03' E 118°10'8 8.9
2016-Dec-07 05:33N 24°08' E 118°17'9 8.9
2016-Dec-07 04:32N 24°15' E 118°24'13 9.2
2016-Dec-07 03:06N 24°24' E 118°34'8 9.3
2016-Dec-07 02:16N 24°30' E 118°39'7 9.9
2016-Dec-07 01:34N 24°36' E 118°44'1010.2
2016-Dec-07 00:34N 24°45' E 118°48'6 5.9
2016-Dec-06 23:33N 24°49' E 118°43'0 0.0
2016-Dec-06 22:29N 24°49' E 118°43'0 0.0
2016-Dec-06 21:29N 24°49' E 118°43'0 0.0
2016-Dec-06 20:29N 24°49' E 118°43'0 0.0
2016-Dec-06 18:11N 24°49' E 118°43'0 0.0
2016-Dec-06 17:29N 24°49' E 118°43'0 0.0
2016-Dec-06 16:29N 24°49' E 118°43'0 0.0
2016-Dec-06 15:33N 24°49' E 118°43'0 0.0
2016-Dec-06 14:33N 24°49' E 118°43'0 0.0
2016-Dec-06 13:33N 24°49' E 118°43'0 0.0
2016-Dec-06 12:33N 24°49' E 118°43'0 0.0
2016-Dec-06 11:27N 24°49' E 118°43'0 0.0
2016-Dec-06 10:21N 24°49' E 118°43'0 0.0
2016-Dec-06 09:33N 24°49' E 118°43'0 0.1
2016-Dec-06 08:34N 24°49' E 118°43'5 4.1
2016-Dec-06 07:26N 24°48' E 118°48'0 0.0
2016-Dec-06 03:14N 24°48' E 118°48'0 0.0
2016-Dec-06 02:32N 24°48' E 118°48'0 0.0
2016-Dec-06 01:26N 24°48' E 118°48'0 0.0
2016-Dec-06 00:26N 24°48' E 118°48'0 0.0
2016-Dec-05 23:32N 24°48' E 118°48'1 0.5
2016-Dec-05 21:33N 24°47' E 118°49'8 7.6
2016-Dec-05 20:33N 24°40' E 118°46'9 8.0
2016-Dec-05 19:27N 24°32' E 118°41'8 8.3
2016-Dec-05 18:32N 24°27' E 118°35'9 8.5
2016-Dec-05 17:28N 24°21' E 118°28'8 8.7
2016-Dec-05 16:33N 24°17' E 118°20'9 8.9
2016-Dec-05 15:33N 24°11' E 118°13'11 9.5
2016-Dec-05 14:26N 24°03' E 118°05'8 9.0
2016-Dec-05 13:32N 23°57' E 117°59'17 8.4
2016-Dec-05 11:34N 23°46' E 117°46'8 7.9
2016-Dec-05 10:32N 23°41' E 117°39'45 8.8
2016-Dec-05 05:22N 23°18' E 116°56'8 9.2
2016-Dec-05 04:33N 23°17' E 116°48'5 5.4
2016-Dec-05 03:33N 23°21' E 116°44'0 0.0
2016-Dec-05 02:31N 23°21' E 116°44'0 0.0
2016-Dec-05 01:31N 23°21' E 116°44'0 0.0
2016-Dec-05 00:31N 23°21' E 116°44'0 0.0
2016-Dec-04 23:31N 23°21' E 116°44'0 0.0
2016-Dec-04 22:31N 23°21' E 116°44'0 0.0
2016-Dec-04 21:25N 23°21' E 116°44'0 0.0
2016-Dec-04 20:31N 23°21' E 116°44'0 0.0
2016-Dec-04 19:19N 23°21' E 116°44'0 0.0
2016-Dec-04 18:31N 23°21' E 116°44'0 0.0
2016-Dec-04 17:31N 23°21' E 116°44'0 0.0
2016-Dec-04 16:31N 23°21' E 116°44'0 0.0
2016-Dec-04 15:31N 23°21' E 116°44'0 0.0
2016-Dec-04 14:31N 23°21' E 116°44'0 0.0
2016-Dec-04 13:31N 23°21' E 116°44'0 0.0
2016-Dec-04 12:25N 23°21' E 116°44'0 0.0
2016-Dec-04 11:31N 23°21' E 116°44'0 0.0
2016-Dec-04 10:31N 23°21' E 116°44'0 0.0
2016-Dec-04 09:31N 23°21' E 116°44'0 0.0
2016-Dec-04 08:31N 23°21' E 116°44'0 0.0
2016-Dec-04 07:28N 23°21' E 116°44'0 0.0
2016-Dec-04 06:28N 23°21' E 116°44'0 0.0
2016-Dec-04 05:22N 23°21' E 116°44'0 0.0
2016-Dec-04 04:28N 23°21' E 116°44'0 0.0
2016-Dec-04 03:28N 23°21' E 116°44'0 0.0
2016-Dec-04 02:28N 23°21' E 116°44'8 2.3
2016-Dec-03 23:06N 23°17' E 116°51'0 0.0
2016-Dec-03 22:31N 23°17' E 116°51'0 0.0
2016-Dec-03 21:24N 23°17' E 116°51'0 0.1
2016-Dec-03 20:30N 23°17' E 116°51'0 0.1
2016-Dec-03 19:30N 23°17' E 116°51'0 0.1
2016-Dec-03 18:24N 23°17' E 116°51'0 0.0
2016-Dec-03 17:30N 23°17' E 116°51'0 0.0
2016-Dec-03 16:30N 23°17' E 116°51'0 0.0
2016-Dec-03 15:30N 23°17' E 116°51'0 0.0
2016-Dec-03 14:30N 23°17' E 116°51'0 0.0
2016-Dec-03 13:24N 23°17' E 116°51'0 0.0
2016-Dec-03 12:24N 23°17' E 116°51'0 0.0
2016-Dec-03 11:12N 23°17' E 116°51'0 0.0
2016-Dec-03 10:24N 23°17' E 116°51'0 0.0
2016-Dec-03 09:24N 23°17' E 116°51'0 0.0
2016-Dec-03 08:30N 23°17' E 116°51'0 0.0
2016-Dec-03 07:24N 23°17' E 116°51'0 0.0
2016-Dec-03 06:30N 23°17' E 116°51'0 0.1
2016-Dec-03 05:30N 23°17' E 116°51'0 0.1
2016-Dec-03 04:30N 23°17' E 116°51'0 0.0
2016-Dec-03 03:18N 23°17' E 116°51'0 0.0
2016-Dec-03 02:30N 23°17' E 116°51'0 0.1
2016-Dec-03 01:24N 23°17' E 116°51'0 0.1
2016-Dec-03 00:24N 23°17' E 116°51'0 0.1
2016-Dec-02 23:24N 23°17' E 116°51'0 0.0
2016-Dec-02 22:24N 23°17' E 116°51'0 0.0
2016-Dec-02 21:30N 23°17' E 116°51'0 0.0
2016-Dec-02 20:24N 23°17' E 116°51'0 0.1
2016-Dec-02 19:18N 23°17' E 116°51'0 0.0
2016-Dec-02 18:30N 23°17' E 116°51'0 0.0
2016-Dec-02 17:30N 23°17' E 116°51'3 3.2
2016-Dec-02 16:32N 23°18' E 116°54'46 9.3
2016-Dec-02 11:33N 23°40' E 117°38'2719.8
2016-Dec-02 10:13N 23°56' E 118°01'3 3.1
2016-Dec-02 09:16N 23°54' E 117°58'810.4
2016-Dec-02 08:32N 23°59' E 118°05'1110.9
2016-Dec-02 07:33N 24°06' E 118°14'1210.7
2016-Dec-02 06:27N 24°14' E 118°23'1413.1
2016-Dec-02 05:25N 24°24' E 118°33'27 8.3
2016-Dec-02 02:08N 24°48' E 118°46'3 4.6
2016-Dec-02 01:33N 24°49' E 118°43'0 0.1
2016-Dec-02 00:23N 24°49' E 118°43'0 0.0
2016-Dec-01 23:29N 24°49' E 118°43'0 0.0
2016-Dec-01 22:29N 24°49' E 118°43'0 0.0
2016-Dec-01 21:17N 24°49' E 118°43'0 0.0
2016-Dec-01 20:29N 24°49' E 118°43'0 0.0
2016-Dec-01 19:29N 24°49' E 118°43'0 0.0
2016-Dec-01 18:23N 24°49' E 118°43'0 0.0
2016-Dec-01 17:30N 24°49' E 118°43'0 0.0
2016-Dec-01 15:23N 24°49' E 118°43'0 0.0
2016-Dec-01 14:23N 24°49' E 118°43'0 0.0
2016-Dec-01 13:20N 24°49' E 118°43'1 1.0
2016-Dec-01 12:33N 24°49' E 118°44'7 6.6
2016-Dec-01 11:33N 24°43' E 118°47'2014.2
2016-Dec-01 10:10N 24°26' E 118°35'4 5.9
2016-Dec-01 09:32N 24°24' E 118°32'5 4.6
2016-Dec-01 08:33N 24°27' E 118°36'6 5.5
2016-Dec-01 07:31N 24°24' E 118°31'6 5.8
2016-Dec-01 06:33N 24°20' E 118°26'6 6.2
2016-Dec-01 05:33N 24°17' E 118°20'6 5.9
2016-Dec-01 04:33N 24°14' E 118°15'7 6.6
2016-Dec-01 03:32N 24°08' E 118°11'8 7.3
2016-Dec-01 02:23N 24°02' E 118°04'9 9.1
2016-Dec-01 01:24N 23°56' E 117°57'16 8.8
2016-Nov-30 23:33N 23°45' E 117°44'9 8.9
2016-Nov-30 22:32N 23°39' E 117°37'38 7.3
2016-Nov-30 17:21N 23°20' E 117°01'8 8.7
2016-Nov-30 16:29N 23°17' E 116°53'8 8.0
2016-Nov-30 15:28N 23°20' E 116°45'1 1.6
2016-Nov-30 14:33N 23°21' E 116°44'0 0.1
2016-Nov-30 13:33N 23°21' E 116°44'0 0.1
2016-Nov-30 12:33N 23°21' E 116°44'0 0.0
2016-Nov-30 09:03N 23°21' E 116°44'0 0.0
2016-Nov-30 08:29N 23°21' E 116°44'0 0.0
2016-Nov-30 07:33N 23°21' E 116°44'0 0.0
2016-Nov-30 05:23N 23°21' E 116°44'0 0.0
2016-Nov-30 03:27N 23°21' E 116°44'0 0.0
2016-Nov-30 02:21N 23°21' E 116°44'0 0.0
2016-Nov-30 01:15N 23°21' E 116°44'0 0.0
2016-Nov-30 00:33N 23°21' E 116°44'2 1.9
2016-Nov-29 23:33N 23°20' E 116°45'7 6.7
2016-Nov-29 22:33N 23°16' E 116°51'6710.7
2016-Nov-29 16:17N 23°51' E 117°54'810.5
2016-Nov-29 15:33N 23°56' E 118°01'9 9.4
2016-Nov-29 14:33N 24°02' E 118°09'11 9.2
2016-Nov-29 13:22N 24°09' E 118°18'31 6.2
2016-Nov-29 08:20N 24°32' E 118°40'7 8.6
2016-Nov-29 07:34N 24°38' E 118°45'1010.1
2016-Nov-29 06:34N 24°48' E 118°48'4 4.3
2016-Nov-29 05:33N 24°49' E 118°43'0 0.0
2016-Nov-29 04:25N 24°49' E 118°43'0 0.0
2016-Nov-29 03:19N 24°49' E 118°43'0 0.0
2016-Nov-29 02:17N 24°49' E 118°43'0 0.0
2016-Nov-29 01:28N 24°49' E 118°43'0 0.0
2016-Nov-29 00:29N 24°49' E 118°43'  

Dump ship's entire track history